• Join FlightAware (Why Join?)
  • Login
  • US Flag 
02:45AM EDT


 

Airport Tracker/Info


-or-


 

Live Flight TrackerFlight Track Log ✈ SWA3353 ✈ 03-May-2012 ✈ KDEN - KLAX

Flight Track Log - Related Links

Times and Time Zones

All times are in EDT time to prevent confusion due to time zone crossing. See the SWA3353 flight status page for this flight to view local times or setup timezone preferences in your user account.

Time Position Orientation Groundspeed Altitude Reporting Facility
EDT Latitude Longitude Course Direction KTS MPH feet Rate Location/Type
12:00AM 39.6296 -105.3205 67° East  Level FlightAware Approximate
12:01AM 39.5960 -105.4390 68° East  Level FlightAware Approximate
12:02AM 39.5646 -105.5584 68° East  Level FlightAware Approximate
12:03AM 39.5315 -105.6769 68° East  Level FlightAware Approximate
12:04AM 39.4780 -105.7822 67° East  Level FlightAware Approximate
12:05AM 39.4621 -105.9025 68° East  Level FlightAware Approximate
12:06AM 39.4069 -106.0061 67° East  Level FlightAware Approximate
12:07AM 39.3976 -106.1263 68° East  Level FlightAware Approximate
12:08AM 39.3677 -106.2460 68° East  Level FlightAware Approximate
12:09AM 39.3081 -106.3454 67° East  Level FlightAware Approximate
12:10AM 39.2484 -106.4446 66° East  Level FlightAware Approximate
12:11AM 39.1887 -106.5437 65° Northeast  Level FlightAware Approximate
12:12AM 39.1288 -106.6426 64° Northeast  Level FlightAware Approximate
12:13AM 39.0689 -106.7413 64° Northeast  Level FlightAware Approximate
12:14AM 39.0089 -106.8398 63° Northeast  Level FlightAware Approximate
12:15AM 38.9488 -106.9382 62° Northeast  Level FlightAware Approximate
12:15AM 39.8167 -104.7333 279° West 245 282 8,300  Level Denver TRACON
12:17AM 39.8333 -104.8667 254° West 295 339 12,700 3,480 Climbing Denver TRACON
12:18AM 39.8169 -104.9431 243° Southwest 311 358 15,900 3,420 Climbing Denver Center
12:19AM 39.7767 -105.0439 242° Southwest 306 352 19,100 3,000 Climbing Denver Center
12:20AM 39.7300 -105.1583 243° Southwest 338 389 22,000 2,880 Climbing Denver Center
12:21AM 39.6814 -105.2833 244° Southwest 375 432 24,900 2,700 Climbing Denver Center
12:22AM 39.6325 -105.4108 243° Southwest 390 449 27,400 2,340 Climbing Denver Center
12:23AM 39.5794 -105.5464 247° West 412 474 29,700 2,160 Climbing Denver Center
12:24AM 39.5325 -105.6869 250° West 424 488 31,800 2,280 Climbing Denver Center
12:25AM 39.4919 -105.8328 246° West 430 495 34,300 2,400 Climbing Denver Center
12:26AM 39.4406 -105.9811 240° Southwest 425 489 36,600 1,920 Climbing Denver Center
12:27AM 39.3806 -106.1133 239° Southwest 420 483 38,200 1,680 Climbing Denver Center
12:28AM 39.3203 -106.2425 240° Southwest 429 494 40,000 900 Climbing Denver Center
12:29AM 39.2683 -106.3606 241° Southwest 418 481 40,000  Level Denver Center
12:30AM 39.2142 -106.4867 239° Southwest 423 487 40,000  Level Denver Center
12:31AM 39.1514 -106.6203 240° Southwest 418 481 40,000  Level Denver Center
12:32AM 39.0928 -106.7486 239° Southwest 418 481 40,000  Level Denver Center
12:33AM 39.0383 -106.8661 240° Southwest 418 481 40,000  Level Denver Center
12:34AM 38.9836 -106.9886 239° Southwest 423 487 40,000  Level Denver Center
12:35AM 38.9183 -107.1269 239° Southwest 423 487 40,000  Level Denver Center
12:36AM 38.8592 -107.2517 240° Southwest 423 487 40,000  Level Denver Center
12:37AM 38.8083 -107.3631 239° Southwest 423 487 40,000  Level Denver Center
12:38AM 38.7508 -107.4875 239° Southwest 418 481 40,000  Level Denver Center
12:39AM 38.6850 -107.6275 239° Southwest 418 481 40,000  Level Denver Center
12:40AM 38.6272 -107.7514 239° Southwest 418 481 40,000  Level Denver Center
12:41AM 38.5761 -107.8592 239° Southwest 413 475 40,000  Level Denver Center
12:42AM 38.5161 -107.9856 238° Southwest 413 475 40,000  Level Denver Center
12:43AM 38.4517 -108.1192 238° Southwest 408 470 40,000  Level Denver Center
12:44AM 38.3936 -108.2397 238° Southwest 403 464 40,000  Level Denver Center
12:45AM 38.3417 -108.3442 239° Southwest 403 464 40,000  Level Denver Center
12:46AM 38.2814 -108.4697 239° Southwest 408 470 40,000  Level Denver Center
12:47AM 38.2164 -108.6053 239° Southwest 414 476 40,000  Level Denver Center
12:48AM 38.1556 -108.7328 239° Southwest 414 476 40,000  Level Denver Center
12:49AM 38.1031 -108.8419 238° Southwest 419 482 40,000  Level Denver Center
12:50AM 38.0467 -108.9558 238° Southwest 412 474 40,000  Level Denver Center
12:51AM 37.9811 -109.0906 238° Southwest 407 468 40,000  Level Denver Center
12:52AM 37.9219 -109.2094 238° Southwest 407 468 40,000  Level Denver Center
12:53AM 37.8606 -109.3333 239° Southwest 407 468 40,000  Level Denver Center
12:54AM 37.8097 -109.4417 238° Southwest 402 463 40,000  Level Denver Center
12:55AM 37.7436 -109.5728 238° Southwest 397 457 40,000  Level Denver Center
12:56AM 37.6864 -109.6883 237° Southwest 402 463 40,000  Level Denver Center
12:57AM 37.6311 -109.7958 238° Southwest 402 463 40,000  Level Denver Center
12:58AM 37.5756 -109.9086 237° Southwest 397 457 40,000  Level Denver Center
12:59AM 37.5089 -110.0389 237° Southwest 397 457 40,000  Level Denver Center
01:00AM 37.4489 -110.1561 232° Southwest 397 457 40,000  Level Denver Center
01:01AM 37.3853 -110.2575 238° Southwest 410 472 40,000  Level Denver Center
01:02AM 37.3269 -110.3744 237° Southwest 410 472 40,000  Level Denver Center
01:03AM 37.2622 -110.5014 237° Southwest 410 472 40,000  Level Denver Center
01:04AM 37.1994 -110.6228 237° Southwest 405 466 40,000  Level Denver Center
01:05AM 37.1389 -110.7392 236° Southwest 405 466 40,000  Level Denver Center
01:06AM 37.0758 -110.8578 237° Southwest 410 472 40,000  Level Denver Center
01:07AM 37.0150 -110.9764 237° Southwest 410 472 40,000  Level Denver Center
01:08AM 36.9608 -111.0819 237° Southwest 410 472 40,000  Level Denver Center
01:10AM 36.8119 -111.3678 237° Southwest 409 471 40,000  Level Los Angeles Center
01:11AM 36.7497 -111.4856 237° Southwest 409 471 40,000  Level Los Angeles Center
01:12AM 36.6875 -111.6056 236° Southwest 409 471 40,000  Level Los Angeles Center
01:13AM 36.6308 -111.7097 237° Southwest 409 471 40,000  Level Los Angeles Center
01:14AM 36.5703 -111.8242 238° Southwest 409 471 40,000  Level Los Angeles Center
01:15AM 36.5117 -111.9411 242° Southwest 409 471 40,000  Level Los Angeles Center
01:16AM 36.4575 -112.0653 242° Southwest 409 471 40,000  Level Los Angeles Center
01:17AM 36.4072 -112.1839 243° Southwest 404 465 40,000  Level Los Angeles Center
01:18AM 36.3508 -112.3183 241° Southwest 404 465 40,000  Level Los Angeles Center
01:19AM 36.2961 -112.4394 242° Southwest 404 465 40,000  Level Los Angeles Center
01:20AM 36.2436 -112.5628 242° Southwest 409 471 40,000  Level Los Angeles Center
01:21AM 36.1889 -112.6889 241° Southwest 414 476 40,000  Level Los Angeles Center
01:22AM 36.1339 -112.8119 242° Southwest 414 476 40,000  Level Los Angeles Center
01:23AM 36.0867 -112.9219 242° Southwest 414 476 40,000  Level Los Angeles Center
01:24AM 36.0333 -113.0447 240° Southwest 414 476 40,000  Level Los Angeles Center
01:25AM 35.9781 -113.1647 241° Southwest 414 476 40,000  Level Los Angeles Center
01:26AM 35.9186 -113.2953 242° Southwest 409 471 40,000  Level Los Angeles Center
01:27AM 35.8650 -113.4175 241° Southwest 409 471 40,000  Level Los Angeles Center
01:28AM 35.8111 -113.5372 241° Southwest 409 471 40,000  Level Los Angeles Center
01:29AM 35.7653 -113.6383 241° Southwest 404 465 40,000  Level Los Angeles Center
01:30AM 35.7014 -113.7786 241° Southwest 418 481 40,000  Level Los Angeles Center
01:31AM 35.6472 -113.8978 240° Southwest 424 488 40,000  Level Los Angeles Center
01:32AM 35.5908 -114.0167 240° Southwest 419 482 40,000  Level Los Angeles Center
01:33AM 35.5364 -114.1331 242° Southwest 413 475 40,000  Level Los Angeles Center
01:34AM 35.4822 -114.2567 240° Southwest 413 475 40,000  Level Los Angeles Center
01:35AM 35.4336 -114.3597 240° Southwest 406 467 40,000  Level Los Angeles Center
01:36AM 35.3769 -114.4808 239° Southwest 411 473 40,000  Level Los Angeles Center
01:37AM 35.3200 -114.5989 239° Southwest 411 473 40,000  Level Los Angeles Center
01:38AM 35.2631 -114.7169 240° Southwest 411 473 40,000  Level Los Angeles Center
01:39AM 35.2078 -114.8350 240° Southwest 411 473 40,000  Level Los Angeles Center
01:40AM 35.1528 -114.9525 241° Southwest 411 473 40,000  Level Los Angeles Center
01:41AM 35.0975 -115.0728 240° Southwest 411 473 40,000  Level Los Angeles Center
01:42AM 35.0422 -115.1903 239° Southwest 411 473 40,000  Level Los Angeles Center
01:43AM 34.9844 -115.3075 240° Southwest 411 473 40,000  Level Los Angeles Center
01:44AM 34.9308 -115.4219 241° Southwest 405 466 40,000  Level Los Angeles Center
01:45AM 34.8731 -115.5467 239° Southwest 405 466 40,000  Level Los Angeles Center
01:46AM 34.8236 -115.6481 239° Southwest 405 466 40,000  Level Los Angeles Center
01:47AM 34.7675 -115.7622 240° Southwest 400 460 40,000  Level Los Angeles Center
01:48AM 34.7136 -115.8761 239° Southwest 400 460 40,000  Level Los Angeles Center
01:49AM 34.6575 -115.9900 240° Southwest 395 455 40,000  Level Los Angeles Center
01:50AM 34.6031 -116.1036 239° Southwest 395 455 40,000 -360 Level Los Angeles Center
01:51AM 34.5447 -116.2197 239° Southwest 402 463 39,300 -900 Descending Los Angeles Center
01:52AM 34.4883 -116.3356 240° Southwest 402 463 38,200 -1,860 Descending Los Angeles Center
01:53AM 34.4317 -116.4536 238° Southwest 402 463 35,600 -2,460 Descending Los Angeles Center
01:54AM 34.3769 -116.5617 240° Southwest 396 456 33,300 -2,460 Descending Los Angeles Center
01:55AM 34.3264 -116.6669 239° Southwest 386 444 30,700 -3,000 Descending Los Angeles Center
01:56AM 34.2675 -116.7872 243° Southwest 381 438 27,400 -2,940 Descending Los Angeles Center
01:57AM 34.2272 -116.8825 238° Southwest 373 429 24,900 -2,580 Descending Los Angeles Center
01:58AM 34.1744 -116.9850 235° Southwest 373 429 22,300 -2,940 Descending Los Angeles Center
01:59AM 34.1167 -117.0833 239° Southwest 363 418 19,300 -1,740 Descending Southern California TRACON
02:00AM 34.0667 -117.1833 260° West 347 399 19,000 -1,200 Descending Southern California TRACON
02:01AM 34.0500 -117.3000 259° West 338 389 17,000 -2,220 Descending Southern California TRACON
02:02AM 34.0333 -117.4000 270° West 332 382 14,800 -2,160 Descending Southern California TRACON
02:03AM 34.0333 -117.5000 270° West 309 356 13,000 -1,800 Descending Southern California TRACON
02:04AM 34.0333 -117.6000 259° West 289 333 11,300 -1,500 Descending Southern California TRACON
02:05AM 34.0167 -117.7000 270° West 272 313 10,000 -1,200 Descending Southern California TRACON
02:06AM 34.0167 -117.7833 259° West 258 297 8,900 -1,200 Descending Southern California TRACON
02:07AM 34.0000 -117.8833 270° West 254 292 7,500 -1,200 Descending Southern California TRACON
02:08AM 34.0000 -117.9500 256° West 240 276 6,600 -1,140 Descending Southern California TRACON
02:09AM 33.9833 -118.0333 270° West 223 257 5,300 -1,380 Descending Southern California TRACON
02:10AM 33.9833 -118.1000 256° West 241 277 3,900 -1,200 Descending Southern California TRACON
02:11AM 33.9667 -118.1833 270° West 231 266 2,900 -840 Descending Southern California TRACON
02:12AM 33.9667 -118.2500 270° West 198 228 2,300 -660 Descending Southern California TRACON
02:13AM 33.9667 -118.3167 239° Southwest 157 181 1,600 -660 Descending Southern California TRACON
02:14AM 33.9500 -118.3500 272° West 127 146 1,000 -660 Descending Southern California TRACON
02:15AM 33.9517 -118.4000 262° West 143 165 300 -480 Descending Los Angeles Center
02:16AM 33.9467 -118.4425 262° West 143 165 100 -240 Descending Los Angeles Center